sensor_id;sensor_type;location;lat;lon;timestamp;P1;durP1;ratioP1;P2;durP2;ratioP2
14247;SDS011;7208;49.826;6.004;2022-09-24T00:01:05;5.87;;;4.43;;
14247;SDS011;7208;49.826;6.004;2022-09-24T00:03:31;9.07;;;4.43;;
14247;SDS011;7208;49.826;6.004;2022-09-24T00:06:00;5.17;;;4.30;;
14247;SDS011;7208;49.826;6.004;2022-09-24T00:08:26;7.13;;;4.13;;
14247;SDS011;7208;49.826;6.004;2022-09-24T00:10:52;7.20;;;4.67;;
14247;SDS011;7208;49.826;6.004;2022-09-24T00:13:20;5.30;;;4.30;;
14247;SDS011;7208;49.826;6.004;2022-09-24T00:15:47;7.10;;;5.37;;
14247;SDS011;7208;49.826;6.004;2022-09-24T00:18:13;39.37;;;18.53;;
14247;SDS011;7208;49.826;6.004;2022-09-24T00:20:40;19.23;;;9.83;;
14247;SDS011;7208;49.826;6.004;2022-09-24T00:23:06;5.70;;;5.00;;
14247;SDS011;7208;49.826;6.004;2022-09-24T00:25:33;6.50;;;5.13;;
14247;SDS011;7208;49.826;6.004;2022-09-24T00:28:17;5.97;;;5.40;;
14247;SDS011;7208;49.826;6.004;2022-09-24T00:30:43;5.00;;;4.50;;
14247;SDS011;7208;49.826;6.004;2022-09-24T00:33:10;4.53;;;4.07;;
14247;SDS011;7208;49.826;6.004;2022-09-24T00:35:36;5.43;;;4.90;;
14247;SDS011;7208;49.826;6.004;2022-09-24T00:38:05;6.50;;;5.80;;
14247;SDS011;7208;49.826;6.004;2022-09-24T00:40:32;5.77;;;4.40;;
14247;SDS011;7208;49.826;6.004;2022-09-24T00:42:59;7.43;;;6.10;;
14247;SDS011;7208;49.826;6.004;2022-09-24T00:45:26;7.57;;;5.37;;
14247;SDS011;7208;49.826;6.004;2022-09-24T00:47:54;6.80;;;5.53;;
14247;SDS011;7208;49.826;6.004;2022-09-24T00:55:24;7.97;;;5.53;;
14247;SDS011;7208;49.826;6.004;2022-09-24T00:57:55;6.93;;;5.43;;
14247;SDS011;7208;49.826;6.004;2022-09-24T01:00:21;8.17;;;5.63;;
14247;SDS011;7208;49.826;6.004;2022-09-24T01:02:48;6.97;;;5.23;;
14247;SDS011;7208;49.826;6.004;2022-09-24T01:05:15;5.77;;;5.27;;
14247;SDS011;7208;49.826;6.004;2022-09-24T01:07:41;8.73;;;5.90;;
14247;SDS011;7208;49.826;6.004;2022-09-24T01:10:08;10.80;;;5.80;;
14247;SDS011;7208;49.826;6.004;2022-09-24T01:12:39;6.90;;;5.27;;
14247;SDS011;7208;49.826;6.004;2022-09-24T01:30:20;6.40;;;5.47;;
14247;SDS011;7208;49.826;6.004;2022-09-24T01:32:47;7.00;;;5.30;;
14247;SDS011;7208;49.826;6.004;2022-09-24T01:35:20;5.90;;;5.40;;
14247;SDS011;7208;49.826;6.004;2022-09-24T01:37:49;5.87;;;5.37;;
14247;SDS011;7208;49.826;6.004;2022-09-24T01:40:16;5.77;;;5.27;;
14247;SDS011;7208;49.826;6.004;2022-09-24T01:42:43;5.93;;;5.43;;
14247;SDS011;7208;49.826;6.004;2022-09-24T01:45:10;5.13;;;4.70;;
14247;SDS011;7208;49.826;6.004;2022-09-24T01:47:37;5.47;;;4.63;;
14247;SDS011;7208;49.826;6.004;2022-09-24T01:50:04;4.97;;;4.53;;
14247;SDS011;7208;49.826;6.004;2022-09-24T01:52:32;4.93;;;4.50;;
14247;SDS011;7208;49.826;6.004;2022-09-24T01:54:59;6.20;;;4.87;;
14247;SDS011;7208;49.826;6.004;2022-09-24T01:57:30;5.63;;;4.53;;
14247;SDS011;7208;49.826;6.004;2022-09-24T02:00:03;5.60;;;5.00;;
14247;SDS011;7208;49.826;6.004;2022-09-24T02:02:47;5.40;;;4.90;;
14247;SDS011;7208;49.826;6.004;2022-09-24T02:05:28;6.37;;;5.53;;
14247;SDS011;7208;49.826;6.004;2022-09-24T02:10:23;6.10;;;5.50;;
14247;SDS011;7208;49.826;6.004;2022-09-24T02:12:50;5.53;;;5.03;;
14247;SDS011;7208;49.826;6.004;2022-09-24T02:15:19;8.40;;;5.13;;
14247;SDS011;7208;49.826;6.004;2022-09-24T02:17:47;6.13;;;5.53;;
14247;SDS011;7208;49.826;6.004;2022-09-24T02:20:15;6.27;;;5.50;;
14247;SDS011;7208;49.826;6.004;2022-09-24T02:22:44;5.67;;;4.90;;
14247;SDS011;7208;49.826;6.004;2022-09-24T02:25:12;5.90;;;4.57;;
14247;SDS011;7208;49.826;6.004;2022-09-24T02:27:39;5.27;;;4.83;;
14247;SDS011;7208;49.826;6.004;2022-09-24T02:30:05;5.80;;;5.10;;
14247;SDS011;7208;49.826;6.004;2022-09-24T02:32:32;7.40;;;5.10;;
14247;SDS011;7208;49.826;6.004;2022-09-24T02:35:00;5.30;;;4.90;;
14247;SDS011;7208;49.826;6.004;2022-09-24T02:37:28;7.53;;;5.33;;
14247;SDS011;7208;49.826;6.004;2022-09-24T02:39:54;6.57;;;4.90;;
14247;SDS011;7208;49.826;6.004;2022-09-24T02:42:21;6.28;;;5.38;;
14247;SDS011;7208;49.826;6.004;2022-09-24T02:44:47;5.27;;;4.77;;
14247;SDS011;7208;49.826;6.004;2022-09-24T02:47:13;5.50;;;5.00;;
14247;SDS011;7208;49.826;6.004;2022-09-24T02:49:39;8.27;;;4.97;;
14247;SDS011;7208;49.826;6.004;2022-09-24T02:52:05;6.10;;;5.47;;
14247;SDS011;7208;49.826;6.004;2022-09-24T02:54:31;4.83;;;4.40;;
14247;SDS011;7208;49.826;6.004;2022-09-24T02:56:57;5.40;;;5.00;;
14247;SDS011;7208;49.826;6.004;2022-09-24T02:59:23;5.30;;;4.87;;
14247;SDS011;7208;49.826;6.004;2022-09-24T03:01:49;7.43;;;6.40;;
14247;SDS011;7208;49.826;6.004;2022-09-24T03:04:15;6.17;;;5.37;;
14247;SDS011;7208;49.826;6.004;2022-09-24T03:06:41;7.47;;;5.03;;
14247;SDS011;7208;49.826;6.004;2022-09-24T03:09:09;5.83;;;5.23;;
14247;SDS011;7208;49.826;6.004;2022-09-24T03:11:36;6.27;;;5.67;;
14247;SDS011;7208;49.826;6.004;2022-09-24T03:14:02;6.80;;;5.77;;
14247;SDS011;7208;49.826;6.004;2022-09-24T03:16:28;5.73;;;5.23;;
14247;SDS011;7208;49.826;6.004;2022-09-24T03:18:54;5.97;;;5.37;;
14247;SDS011;7208;49.826;6.004;2022-09-24T03:21:21;5.83;;;5.30;;
14247;SDS011;7208;49.826;6.004;2022-09-24T03:23:47;6.23;;;5.40;;
14247;SDS011;7208;49.826;6.004;2022-09-24T03:26:13;6.53;;;5.50;;
14247;SDS011;7208;49.826;6.004;2022-09-24T03:28:39;5.93;;;5.40;;
14247;SDS011;7208;49.826;6.004;2022-09-24T03:31:05;5.27;;;4.77;;
14247;SDS011;7208;49.826;6.004;2022-09-24T03:33:39;6.00;;;4.90;;
14247;SDS011;7208;49.826;6.004;2022-09-24T03:38:32;6.03;;;4.77;;
14247;SDS011;7208;49.826;6.004;2022-09-24T03:40:58;5.97;;;4.90;;
14247;SDS011;7208;49.826;6.004;2022-09-24T03:43:24;7.87;;;5.20;;
14247;SDS011;7208;49.826;6.004;2022-09-24T03:45:51;5.50;;;5.07;;
14247;SDS011;7208;49.826;6.004;2022-09-24T03:48:18;5.90;;;5.43;;
14247;SDS011;7208;49.826;6.004;2022-09-24T03:50:44;5.63;;;4.87;;
14247;SDS011;7208;49.826;6.004;2022-09-24T03:53:11;7.57;;;5.57;;
14247;SDS011;7208;49.826;6.004;2022-09-24T03:55:41;7.20;;;6.50;;
14247;SDS011;7208;49.826;6.004;2022-09-24T03:58:07;6.57;;;5.50;;
14247;SDS011;7208;49.826;6.004;2022-09-24T04:00:33;6.30;;;5.80;;
14247;SDS011;7208;49.826;6.004;2022-09-24T04:02:59;6.70;;;6.03;;
14247;SDS011;7208;49.826;6.004;2022-09-24T04:05:25;6.33;;;5.73;;
14247;SDS011;7208;49.826;6.004;2022-09-24T04:07:53;5.67;;;5.17;;
14247;SDS011;7208;49.826;6.004;2022-09-24T04:10:19;6.77;;;6.13;;
14247;SDS011;7208;49.826;6.004;2022-09-24T04:12:46;9.73;;;7.10;;
14247;SDS011;7208;49.826;6.004;2022-09-24T04:15:13;7.77;;;6.97;;
14247;SDS011;7208;49.826;6.004;2022-09-24T04:17:40;8.83;;;7.57;;
14247;SDS011;7208;49.826;6.004;2022-09-24T04:20:06;7.47;;;6.70;;
14247;SDS011;7208;49.826;6.004;2022-09-24T04:22:33;9.07;;;7.47;;
14247;SDS011;7208;49.826;6.004;2022-09-24T04:24:59;8.13;;;6.20;;
14247;SDS011;7208;49.826;6.004;2022-09-24T04:27:25;8.07;;;6.33;;
14247;SDS011;7208;49.826;6.004;2022-09-24T04:29:51;9.00;;;7.30;;
14247;SDS011;7208;49.826;6.004;2022-09-24T04:32:18;6.50;;;5.90;;
14247;SDS011;7208;49.826;6.004;2022-09-24T04:34:44;7.87;;;5.30;;
14247;SDS011;7208;49.826;6.004;2022-09-24T04:37:10;7.90;;;5.80;;
14247;SDS011;7208;49.826;6.004;2022-09-24T04:39:36;6.63;;;5.97;;
14247;SDS011;7208;49.826;6.004;2022-09-24T04:42:02;8.33;;;5.80;;
14247;SDS011;7208;49.826;6.004;2022-09-24T04:44:28;6.50;;;5.63;;
14247;SDS011;7208;49.826;6.004;2022-09-24T04:46:54;5.93;;;5.33;;
14247;SDS011;7208;49.826;6.004;2022-09-24T04:49:27;6.90;;;5.93;;
14247;SDS011;7208;49.826;6.004;2022-09-24T04:51:53;9.23;;;6.13;;
14247;SDS011;7208;49.826;6.004;2022-09-24T04:54:22;8.83;;;6.30;;
14247;SDS011;7208;49.826;6.004;2022-09-24T04:56:48;7.83;;;6.10;;
14247;SDS011;7208;49.826;6.004;2022-09-24T04:59:14;6.30;;;5.67;;
14247;SDS011;7208;49.826;6.004;2022-09-24T05:01:40;7.00;;;6.00;;
14247;SDS011;7208;49.826;6.004;2022-09-24T05:04:06;7.47;;;5.63;;
14247;SDS011;7208;49.826;6.004;2022-09-24T05:06:32;7.80;;;5.80;;
14247;SDS011;7208;49.826;6.004;2022-09-24T05:09:00;10.10;;;5.77;;
14247;SDS011;7208;49.826;6.004;2022-09-24T05:11:26;6.87;;;6.20;;
14247;SDS011;7208;49.826;6.004;2022-09-24T05:13:52;7.57;;;6.57;;
14247;SDS011;7208;49.826;6.004;2022-09-24T05:16:19;11.80;;;5.87;;
14247;SDS011;7208;49.826;6.004;2022-09-24T05:18:45;8.80;;;6.70;;
14247;SDS011;7208;49.826;6.004;2022-09-24T05:21:11;7.03;;;6.33;;
14247;SDS011;7208;49.826;6.004;2022-09-24T05:23:37;6.43;;;5.83;;
14247;SDS011;7208;49.826;6.004;2022-09-24T05:26:03;10.90;;;6.73;;
14247;SDS011;7208;49.826;6.004;2022-09-24T05:28:47;7.33;;;6.30;;
14247;SDS011;7208;49.826;6.004;2022-09-24T05:31:13;8.83;;;6.50;;
14247;SDS011;7208;49.826;6.004;2022-09-24T05:33:39;8.40;;;6.20;;
14247;SDS011;7208;49.826;6.004;2022-09-24T05:36:06;7.53;;;5.93;;
14247;SDS011;7208;49.826;6.004;2022-09-24T05:38:32;6.23;;;5.70;;
14247;SDS011;7208;49.826;6.004;2022-09-24T05:40:58;9.43;;;5.70;;
14247;SDS011;7208;49.826;6.004;2022-09-24T05:43:24;8.57;;;5.33;;
14247;SDS011;7208;49.826;6.004;2022-09-24T05:45:52;7.70;;;5.63;;
14247;SDS011;7208;49.826;6.004;2022-09-24T05:48:18;9.00;;;5.63;;
14247;SDS011;7208;49.826;6.004;2022-09-24T05:50:45;8.30;;;6.40;;
14247;SDS011;7208;49.826;6.004;2022-09-24T05:53:11;7.23;;;6.50;;
14247;SDS011;7208;49.826;6.004;2022-09-24T05:55:37;8.73;;;7.83;;
14247;SDS011;7208;49.826;6.004;2022-09-24T05:58:05;8.10;;;7.30;;
14247;SDS011;7208;49.826;6.004;2022-09-24T06:00:31;8.17;;;7.37;;
14247;SDS011;7208;49.826;6.004;2022-09-24T06:03:04;11.47;;;7.77;;
14247;SDS011;7208;49.826;6.004;2022-09-24T06:05:31;6.93;;;6.23;;
14247;SDS011;7208;49.826;6.004;2022-09-24T06:07:59;7.30;;;6.57;;
14247;SDS011;7208;49.826;6.004;2022-09-24T06:10:25;6.57;;;6.03;;
14247;SDS011;7208;49.826;6.004;2022-09-24T06:12:52;6.93;;;6.30;;
14247;SDS011;7208;49.826;6.004;2022-09-24T06:15:18;8.67;;;6.40;;
14247;SDS011;7208;49.826;6.004;2022-09-24T06:17:44;8.23;;;6.97;;
14247;SDS011;7208;49.826;6.004;2022-09-24T06:20:10;8.30;;;7.57;;
14247;SDS011;7208;49.826;6.004;2022-09-24T06:22:37;8.40;;;7.60;;
14247;SDS011;7208;49.826;6.004;2022-09-24T06:25:04;7.70;;;6.93;;
14247;SDS011;7208;49.826;6.004;2022-09-24T06:27:30;9.03;;;5.83;;
14247;SDS011;7208;49.826;6.004;2022-09-24T06:29:56;7.43;;;6.73;;
14247;SDS011;7208;49.826;6.004;2022-09-24T06:32:23;7.10;;;6.40;;
14247;SDS011;7208;49.826;6.004;2022-09-24T06:34:49;10.97;;;7.20;;
14247;SDS011;7208;49.826;6.004;2022-09-24T06:37:15;6.40;;;5.90;;
14247;SDS011;7208;49.826;6.004;2022-09-24T06:39:41;6.97;;;6.00;;
14247;SDS011;7208;49.826;6.004;2022-09-24T06:42:07;8.43;;;5.57;;
14247;SDS011;7208;49.826;6.004;2022-09-24T06:44:36;6.07;;;5.57;;
14247;SDS011;7208;49.826;6.004;2022-09-24T06:47:03;6.07;;;5.57;;
14247;SDS011;7208;49.826;6.004;2022-09-24T06:49:29;7.30;;;5.20;;
14247;SDS011;7208;49.826;6.004;2022-09-24T06:51:55;6.97;;;5.40;;
14247;SDS011;7208;49.826;6.004;2022-09-24T06:54:22;8.00;;;7.10;;
14247;SDS011;7208;49.826;6.004;2022-09-24T06:56:48;13.33;;;9.50;;
14247;SDS011;7208;49.826;6.004;2022-09-24T06:59:16;12.13;;;9.90;;
14247;SDS011;7208;49.826;6.004;2022-09-24T07:01:42;11.33;;;9.90;;
14247;SDS011;7208;49.826;6.004;2022-09-24T07:04:08;9.93;;;8.00;;
14247;SDS011;7208;49.826;6.004;2022-09-24T07:06:34;10.43;;;7.57;;
14247;SDS011;7208;49.826;6.004;2022-09-24T07:09:20;8.07;;;6.33;;
14247;SDS011;7208;49.826;6.004;2022-09-24T07:11:46;7.80;;;5.90;;
14247;SDS011;7208;49.826;6.004;2022-09-24T07:14:12;6.70;;;6.07;;
14247;SDS011;7208;49.826;6.004;2022-09-24T07:16:39;8.27;;;6.27;;
14247;SDS011;7208;49.826;6.004;2022-09-24T07:19:05;7.83;;;7.07;;
14247;SDS011;7208;49.826;6.004;2022-09-24T07:21:31;7.67;;;6.97;;
14247;SDS011;7208;49.826;6.004;2022-09-24T07:23:57;6.83;;;6.33;;
14247;SDS011;7208;49.826;6.004;2022-09-24T07:26:23;6.17;;;5.57;;
14247;SDS011;7208;49.826;6.004;2022-09-24T07:28:49;6.63;;;5.93;;
14247;SDS011;7208;49.826;6.004;2022-09-24T07:31:15;7.00;;;6.30;;
14247;SDS011;7208;49.826;6.004;2022-09-24T07:33:41;7.23;;;6.13;;
14247;SDS011;7208;49.826;6.004;2022-09-24T07:36:07;7.80;;;5.60;;
14247;SDS011;7208;49.826;6.004;2022-09-24T07:38:34;7.10;;;6.40;;
14247;SDS011;7208;49.826;6.004;2022-09-24T07:41:03;6.60;;;5.53;;
14247;SDS011;7208;49.826;6.004;2022-09-24T07:43:30;5.53;;;5.10;;
14247;SDS011;7208;49.826;6.004;2022-09-24T07:45:57;5.97;;;5.40;;
14247;SDS011;7208;49.826;6.004;2022-09-24T07:48:23;7.07;;;6.37;;
14247;SDS011;7208;49.826;6.004;2022-09-24T07:50:49;6.70;;;6.10;;
14247;SDS011;7208;49.826;6.004;2022-09-24T07:53:15;8.13;;;6.33;;
14247;SDS011;7208;49.826;6.004;2022-09-24T07:55:42;6.73;;;6.17;;
14247;SDS011;7208;49.826;6.004;2022-09-24T07:58:10;7.20;;;5.87;;
14247;SDS011;7208;49.826;6.004;2022-09-24T08:00:37;6.93;;;6.33;;
14247;SDS011;7208;49.826;6.004;2022-09-24T08:03:04;7.63;;;6.90;;
14247;SDS011;7208;49.826;6.004;2022-09-24T08:05:31;7.07;;;6.47;;
14247;SDS011;7208;49.826;6.004;2022-09-24T08:07:57;6.10;;;5.60;;
14247;SDS011;7208;49.826;6.004;2022-09-24T08:10:24;5.80;;;5.30;;
14247;SDS011;7208;49.826;6.004;2022-09-24T08:12:50;5.10;;;4.70;;
14247;SDS011;7208;49.826;6.004;2022-09-24T08:15:17;5.87;;;5.20;;
14247;SDS011;7208;49.826;6.004;2022-09-24T08:17:43;6.80;;;5.07;;
14247;SDS011;7208;49.826;6.004;2022-09-24T08:20:09;5.63;;;5.10;;
14247;SDS011;7208;49.826;6.004;2022-09-24T08:22:36;6.03;;;5.13;;
14247;SDS011;7208;49.826;6.004;2022-09-24T08:25:02;6.60;;;4.73;;
14247;SDS011;7208;49.826;6.004;2022-09-24T08:27:28;8.03;;;5.33;;
14247;SDS011;7208;49.826;6.004;2022-09-24T08:29:56;5.73;;;4.57;;
14247;SDS011;7208;49.826;6.004;2022-09-24T08:32:24;5.37;;;4.87;;
14247;SDS011;7208;49.826;6.004;2022-09-24T08:34:50;6.53;;;6.00;;
14247;SDS011;7208;49.826;6.004;2022-09-24T08:37:16;5.77;;;4.70;;
14247;SDS011;7208;49.826;6.004;2022-09-24T08:39:42;5.37;;;4.97;;
14247;SDS011;7208;49.826;6.004;2022-09-24T08:42:18;6.17;;;5.67;;
14247;SDS011;7208;49.826;6.004;2022-09-24T08:44:45;5.33;;;4.87;;
14247;SDS011;7208;49.826;6.004;2022-09-24T08:47:33;5.73;;;4.73;;
14247;SDS011;7208;49.826;6.004;2022-09-24T08:52:43;5.87;;;4.50;;
14247;SDS011;7208;49.826;6.004;2022-09-24T08:55:23;4.93;;;4.43;;
14247;SDS011;7208;49.826;6.004;2022-09-24T08:57:57;5.30;;;4.20;;
14247;SDS011;7208;49.826;6.004;2022-09-24T09:00:25;5.03;;;3.90;;
14247;SDS011;7208;49.826;6.004;2022-09-24T09:03:11;4.57;;;3.87;;
14247;SDS011;7208;49.826;6.004;2022-09-24T09:08:08;7.73;;;5.73;;
14247;SDS011;7208;49.826;6.004;2022-09-24T09:10:38;5.73;;;4.60;;
14247;SDS011;7208;49.826;6.004;2022-09-24T09:15:37;4.53;;;4.13;;
14247;SDS011;7208;49.826;6.004;2022-09-24T09:18:16;4.40;;;3.90;;
14247;SDS011;7208;49.826;6.004;2022-09-24T09:20:44;5.33;;;4.43;;
14247;SDS011;7208;49.826;6.004;2022-09-24T09:23:18;4.53;;;4.00;;
14247;SDS011;7208;49.826;6.004;2022-09-24T09:25:49;3.83;;;3.43;;
14247;SDS011;7208;49.826;6.004;2022-09-24T09:28:17;4.30;;;3.90;;
14247;SDS011;7208;49.826;6.004;2022-09-24T09:35:48;4.07;;;3.63;;
14247;SDS011;7208;49.826;6.004;2022-09-24T09:40:51;6.10;;;4.00;;
14247;SDS011;7208;49.826;6.004;2022-09-24T09:43:18;4.57;;;4.17;;
14247;SDS011;7208;49.826;6.004;2022-09-24T09:48:16;5.03;;;3.53;;
14247;SDS011;7208;49.826;6.004;2022-09-24T09:50:45;6.73;;;4.40;;
14247;SDS011;7208;49.826;6.004;2022-09-24T09:53:22;4.47;;;4.00;;
14247;SDS011;7208;49.826;6.004;2022-09-24T09:56:02;4.33;;;3.93;;
14247;SDS011;7208;49.826;6.004;2022-09-24T09:58:30;4.37;;;3.97;;
14247;SDS011;7208;49.826;6.004;2022-09-24T10:01:03;4.23;;;3.83;;
14247;SDS011;7208;49.826;6.004;2022-09-24T10:03:31;4.20;;;3.80;;
14247;SDS011;7208;49.826;6.004;2022-09-24T10:05:59;5.03;;;4.00;;
14247;SDS011;7208;49.826;6.004;2022-09-24T10:08:25;4.53;;;3.67;;
14247;SDS011;7208;49.826;6.004;2022-09-24T10:10:52;4.77;;;4.23;;
14247;SDS011;7208;49.826;6.004;2022-09-24T10:13:21;4.83;;;4.43;;
14247;SDS011;7208;49.826;6.004;2022-09-24T10:15:57;5.63;;;4.00;;
14247;SDS011;7208;49.826;6.004;2022-09-24T10:20:53;5.53;;;4.20;;
14247;SDS011;7208;49.826;6.004;2022-09-24T10:23:21;8.37;;;4.23;;
14247;SDS011;7208;49.826;6.004;2022-09-24T10:25:49;5.07;;;4.20;;
14247;SDS011;7208;49.826;6.004;2022-09-24T10:28:17;5.10;;;4.50;;
14247;SDS011;7208;49.826;6.004;2022-09-24T10:31:09;4.67;;;4.27;;
14247;SDS011;7208;49.826;6.004;2022-09-24T10:33:36;5.53;;;4.47;;
14247;SDS011;7208;49.826;6.004;2022-09-24T10:36:04;4.67;;;4.23;;
14247;SDS011;7208;49.826;6.004;2022-09-24T10:38:31;5.10;;;4.60;;
14247;SDS011;7208;49.826;6.004;2022-09-24T10:40:57;6.77;;;4.33;;
14247;SDS011;7208;49.826;6.004;2022-09-24T10:43:25;5.07;;;4.63;;
14247;SDS011;7208;49.826;6.004;2022-09-24T10:48:20;5.50;;;5.00;;
14247;SDS011;7208;49.826;6.004;2022-09-24T10:50:54;12.47;;;6.00;;
14247;SDS011;7208;49.826;6.004;2022-09-24T10:58:34;9.63;;;5.30;;
14247;SDS011;7208;49.826;6.004;2022-09-24T11:01:17;5.80;;;4.97;;
14247;SDS011;7208;49.826;6.004;2022-09-24T11:06:41;6.77;;;5.10;;
14247;SDS011;7208;49.826;6.004;2022-09-24T11:11:51;4.93;;;4.43;;
14247;SDS011;7208;49.826;6.004;2022-09-24T11:19:52;5.53;;;4.53;;
14247;SDS011;7208;49.826;6.004;2022-09-24T11:22:32;5.20;;;4.70;;
14247;SDS011;7208;49.826;6.004;2022-09-24T11:25:07;6.43;;;4.73;;
14247;SDS011;7208;49.826;6.004;2022-09-24T11:35:17;5.13;;;4.70;;
14247;SDS011;7208;49.826;6.004;2022-09-24T11:40:54;6.03;;;5.23;;
14247;SDS011;7208;49.826;6.004;2022-09-24T11:55:47;5.40;;;5.00;;
14247;SDS011;7208;49.826;6.004;2022-09-24T11:58:19;6.00;;;5.40;;
14247;SDS011;7208;49.826;6.004;2022-09-24T12:03:24;5.37;;;4.87;;
14247;SDS011;7208;49.826;6.004;2022-09-24T12:05:54;6.47;;;5.83;;
14247;SDS011;7208;49.826;6.004;2022-09-24T12:10:58;8.73;;;6.00;;
14247;SDS011;7208;49.826;6.004;2022-09-24T12:15:56;6.70;;;6.00;;
14247;SDS011;7208;49.826;6.004;2022-09-24T12:18:26;8.03;;;6.00;;
14247;SDS011;7208;49.826;6.004;2022-09-24T12:20:55;8.87;;;6.00;;
14247;SDS011;7208;49.826;6.004;2022-09-24T12:23:26;8.30;;;6.57;;
14247;SDS011;7208;49.826;6.004;2022-09-24T12:25:53;7.40;;;5.90;;
14247;SDS011;7208;49.826;6.004;2022-09-24T12:28:20;6.10;;;5.53;;
14247;SDS011;7208;49.826;6.004;2022-09-24T12:31:16;10.30;;;6.00;;
14247;SDS011;7208;49.826;6.004;2022-09-24T12:34:13;6.60;;;5.90;;
14247;SDS011;7208;49.826;6.004;2022-09-24T12:39:08;7.60;;;6.83;;
14247;SDS011;7208;49.826;6.004;2022-09-24T12:41:43;8.17;;;7.47;;
14247;SDS011;7208;49.826;6.004;2022-09-24T12:54:36;8.30;;;7.60;;
14247;SDS011;7208;49.826;6.004;2022-09-24T12:57:11;9.70;;;8.80;;
14247;SDS011;7208;49.826;6.004;2022-09-24T12:59:45;9.67;;;8.77;;
14247;SDS011;7208;49.826;6.004;2022-09-24T13:02:13;11.60;;;9.33;;
14247;SDS011;7208;49.826;6.004;2022-09-24T13:04:42;9.83;;;8.93;;
14247;SDS011;7208;49.826;6.004;2022-09-24T13:09:54;10.07;;;9.07;;
14247;SDS011;7208;49.826;6.004;2022-09-24T13:12:21;10.97;;;9.47;;
14247;SDS011;7208;49.826;6.004;2022-09-24T13:14:55;10.80;;;9.67;;
14247;SDS011;7208;49.826;6.004;2022-09-24T13:17:24;12.23;;;10.17;;
14247;SDS011;7208;49.826;6.004;2022-09-24T13:19:55;10.03;;;9.03;;
14247;SDS011;7208;49.826;6.004;2022-09-24T13:22:26;10.20;;;9.30;;
14247;SDS011;7208;49.826;6.004;2022-09-24T13:25:03;9.30;;;8.37;;
14247;SDS011;7208;49.826;6.004;2022-09-24T13:30:01;9.23;;;7.80;;
14247;SDS011;7208;49.826;6.004;2022-09-24T13:32:28;9.73;;;8.70;;
14247;SDS011;7208;49.826;6.004;2022-09-24T13:34:59;9.40;;;8.50;;
14247;SDS011;7208;49.826;6.004;2022-09-24T13:37:34;9.03;;;8.10;;
14247;SDS011;7208;49.826;6.004;2022-09-24T13:40:05;9.23;;;8.33;;
14247;SDS011;7208;49.826;6.004;2022-09-24T13:42:46;10.53;;;9.53;;
14247;SDS011;7208;49.826;6.004;2022-09-24T13:45:14;10.30;;;9.30;;
14247;SDS011;7208;49.826;6.004;2022-09-24T13:47:55;10.27;;;8.50;;
14247;SDS011;7208;49.826;6.004;2022-09-24T13:50:30;10.90;;;9.00;;
14247;SDS011;7208;49.826;6.004;2022-09-24T13:53:02;10.00;;;7.97;;
14247;SDS011;7208;49.826;6.004;2022-09-24T13:55:33;9.03;;;8.17;;
14247;SDS011;7208;49.826;6.004;2022-09-24T13:58:01;9.20;;;7.73;;
14247;SDS011;7208;49.826;6.004;2022-09-24T14:00:28;8.33;;;7.63;;
14247;SDS011;7208;49.826;6.004;2022-09-24T14:05:40;8.10;;;7.40;;
14247;SDS011;7208;49.826;6.004;2022-09-24T14:08:08;10.07;;;9.07;;
14247;SDS011;7208;49.826;6.004;2022-09-24T14:10:37;11.73;;;10.73;;
14247;SDS011;7208;49.826;6.004;2022-09-24T14:13:17;8.20;;;7.40;;
14247;SDS011;7208;49.826;6.004;2022-09-24T14:16:27;9.40;;;8.50;;
14247;SDS011;7208;49.826;6.004;2022-09-24T14:18:34;9.20;;;8.30;;
14247;SDS011;7208;49.826;6.004;2022-09-24T14:21:09;8.77;;;7.67;;
14247;SDS011;7208;49.826;6.004;2022-09-24T14:23:44;8.43;;;7.63;;
14247;SDS011;7208;49.826;6.004;2022-09-24T14:26:35;10.67;;;7.37;;
14247;SDS011;7208;49.826;6.004;2022-09-24T14:28:59;7.57;;;6.87;;
14247;SDS011;7208;49.826;6.004;2022-09-24T14:31:25;8.77;;;7.00;;
14247;SDS011;7208;49.826;6.004;2022-09-24T14:33:51;9.60;;;7.00;;
14247;SDS011;7208;49.826;6.004;2022-09-24T14:36:18;8.70;;;6.80;;
14247;SDS011;7208;49.826;6.004;2022-09-24T14:39:01;7.37;;;6.67;;
14247;SDS011;7208;49.826;6.004;2022-09-24T14:41:28;8.63;;;6.67;;
14247;SDS011;7208;49.826;6.004;2022-09-24T14:46:34;6.97;;;6.33;;
14247;SDS011;7208;49.826;6.004;2022-09-24T14:49:13;10.60;;;8.07;;
14247;SDS011;7208;49.826;6.004;2022-09-24T14:51:49;7.43;;;6.83;;
14247;SDS011;7208;49.826;6.004;2022-09-24T14:56:44;8.20;;;7.40;;
14247;SDS011;7208;49.826;6.004;2022-09-24T14:59:14;9.70;;;7.47;;
14247;SDS011;7208;49.826;6.004;2022-09-24T15:01:41;7.97;;;7.03;;
14247;SDS011;7208;49.826;6.004;2022-09-24T15:04:16;9.00;;;8.10;;
14247;SDS011;7208;49.826;6.004;2022-09-24T15:06:45;10.20;;;8.00;;
14247;SDS011;7208;49.826;6.004;2022-09-24T15:11:44;8.67;;;7.87;;
14247;SDS011;7208;49.826;6.004;2022-09-24T15:14:11;8.30;;;7.43;;
14247;SDS011;7208;49.826;6.004;2022-09-24T15:16:39;10.10;;;7.73;;
14247;SDS011;7208;49.826;6.004;2022-09-24T15:21:32;8.27;;;7.43;;
14247;SDS011;7208;49.826;6.004;2022-09-24T15:23:58;7.23;;;6.63;;
14247;SDS011;7208;49.826;6.004;2022-09-24T15:26:26;9.27;;;7.80;;
14247;SDS011;7208;49.826;6.004;2022-09-24T15:28:53;9.43;;;8.43;;
14247;SDS011;7208;49.826;6.004;2022-09-24T15:31:20;8.73;;;7.93;;
14247;SDS011;7208;49.826;6.004;2022-09-24T15:33:47;8.23;;;7.53;;
14247;SDS011;7208;49.826;6.004;2022-09-24T15:36:13;9.47;;;8.50;;
14247;SDS011;7208;49.826;6.004;2022-09-24T15:38:42;8.33;;;7.47;;
14247;SDS011;7208;49.826;6.004;2022-09-24T15:41:08;9.37;;;8.47;;
14247;SDS011;7208;49.826;6.004;2022-09-24T15:43:34;9.93;;;9.00;;
14247;SDS011;7208;49.826;6.004;2022-09-24T15:46:00;11.03;;;9.00;;
14247;SDS011;7208;49.826;6.004;2022-09-24T15:48:27;13.27;;;10.10;;
14247;SDS011;7208;49.826;6.004;2022-09-24T15:50:53;11.10;;;10.20;;
14247;SDS011;7208;49.826;6.004;2022-09-24T15:53:20;10.50;;;9.33;;
14247;SDS011;7208;49.826;6.004;2022-09-24T15:55:48;10.30;;;9.20;;
14247;SDS011;7208;49.826;6.004;2022-09-24T15:58:15;11.40;;;10.10;;
14247;SDS011;7208;49.826;6.004;2022-09-24T16:00:41;11.23;;;10.07;;
14247;SDS011;7208;49.826;6.004;2022-09-24T16:03:26;12.33;;;8.87;;
14247;SDS011;7208;49.826;6.004;2022-09-24T16:05:53;10.47;;;9.57;;
14247;SDS011;7208;49.826;6.004;2022-09-24T16:08:19;11.13;;;10.00;;
14247;SDS011;7208;49.826;6.004;2022-09-24T16:10:45;9.63;;;8.63;;
14247;SDS011;7208;49.826;6.004;2022-09-24T16:13:12;11.90;;;10.80;;
14247;SDS011;7208;49.826;6.004;2022-09-24T16:15:38;11.90;;;9.67;;
14247;SDS011;7208;49.826;6.004;2022-09-24T16:18:05;11.77;;;10.07;;
14247;SDS011;7208;49.826;6.004;2022-09-24T16:20:31;10.50;;;9.60;;
14247;SDS011;7208;49.826;6.004;2022-09-24T16:22:58;11.30;;;10.10;;
14247;SDS011;7208;49.826;6.004;2022-09-24T16:25:24;11.57;;;10.23;;
14247;SDS011;7208;49.826;6.004;2022-09-24T16:27:52;11.00;;;9.43;;
14247;SDS011;7208;49.826;6.004;2022-09-24T16:30:18;10.10;;;9.20;;
14247;SDS011;7208;49.826;6.004;2022-09-24T16:32:44;10.80;;;9.80;;
14247;SDS011;7208;49.826;6.004;2022-09-24T16:35:10;11.57;;;10.27;;
14247;SDS011;7208;49.826;6.004;2022-09-24T16:37:37;11.10;;;10.00;;
14247;SDS011;7208;49.826;6.004;2022-09-24T16:40:03;11.13;;;10.17;;
14247;SDS011;7208;49.826;6.004;2022-09-24T16:42:29;10.93;;;9.93;;
14247;SDS011;7208;49.826;6.004;2022-09-24T16:44:55;14.07;;;10.37;;
14247;SDS011;7208;49.826;6.004;2022-09-24T16:47:21;11.27;;;9.90;;
14247;SDS011;7208;49.826;6.004;2022-09-24T16:49:48;11.70;;;10.50;;
14247;SDS011;7208;49.826;6.004;2022-09-24T16:52:14;12.17;;;10.30;;
14247;SDS011;7208;49.826;6.004;2022-09-24T16:54:40;12.03;;;10.87;;
14247;SDS011;7208;49.826;6.004;2022-09-24T16:57:06;12.43;;;10.57;;
14247;SDS011;7208;49.826;6.004;2022-09-24T16:59:33;12.10;;;10.07;;
14247;SDS011;7208;49.826;6.004;2022-09-24T17:01:59;11.00;;;10.00;;
14247;SDS011;7208;49.826;6.004;2022-09-24T17:04:25;11.07;;;9.90;;
14247;SDS011;7208;49.826;6.004;2022-09-24T17:06:55;14.17;;;11.20;;
14247;SDS011;7208;49.826;6.004;2022-09-24T17:09:21;13.87;;;10.57;;
14247;SDS011;7208;49.826;6.004;2022-09-24T17:12:06;12.03;;;10.37;;